| time (UTC) | temp F | wind direction | speed knots | gust knots | rain 1hr in | rain 24hr in | rain mn in | humidity % | barometer mb |
| 20260505194555 | 58 | 53 | 0.9 | 3.5 | 0.00 | 0.00 | 0.00 | 79 | 1014.6 |
| 20260505193054 | 57 | 86 | 0.0 | 3.5 | 0.00 | 0.00 | 0.00 | 80 | 1014.6 |
| 20260505191556 | 58 | 86 | 0.0 | 1.7 | 0.00 | 0.00 | 0.00 | 79 | 1014.6 |
| 20260505190051 | 58 | 73 | 0.0 | 5.2 | 0.00 | 0.00 | 0.00 | 80 | 1014.5 |
| 20260505184551 | 56 | 84 | 0.0 | 5.2 | 0.00 | 0.00 | 0.00 | 82 | 1014.6 |
| 20260505183049 | 56 | 46 | 0.0 | 0.9 | 0.00 | 0.00 | 0.00 | 83 | 1014.6 |
| 20260505181545 | 54 | 207 | 0.0 | 0.0 | 0.00 | 0.00 | 0.00 | 85 | 1014.5 |
| 20260505180047 | 54 | 244 | 0.0 | 0.9 | 0.00 | 0.00 | 0.00 | 86 | 1014.5 |
| 20260505174542 | 54 | 245 | 0.0 | 2.6 | 0.00 | 0.00 | 0.00 | 86 | 1014.5 |
| 20260505173041 | 53 | 245 | 0.0 | 2.6 | 0.00 | 0.00 | 0.00 | 86 | 1014.5 |
| 20260505171539 | 53 | 233 | 0.0 | 3.5 | 0.00 | 0.00 | 0.00 | 86 | 1014.4 |
| 20260505170040 | 53 | 244 | 0.0 | 3.5 | 0.00 | 0.00 | 0.00 | 86 | 1014.2 |
| 20260505164539 | 53 | 267 | 0.0 | 6.1 | 0.00 | 0.00 | 0.00 | 86 | 1014.2 |
| 20260505163037 | 53 | 215 | 1.7 | 5.2 | 0.00 | 0.00 | 0.00 | 86 | 1014.1 |
| 20260505161539 | 53 | 175 | 0.0 | 0.0 | 0.00 | 0.00 | 0.00 | 88 | 1014.0 |
| 20260505153036 | 52 | 261 | 0.0 | 2.6 | 0.00 | 0.00 | 0.00 | 91 | 1013.9 |
| 20260505151539 | 51 | 261 | 0.0 | 3.5 | 0.00 | 0.00 | 0.00 | 92 | 1013.9 |
| 20260505124518 | 51 | 240 | 0.0 | 0.0 | 0.00 | 0.00 | 0.00 | 91 | 1012.9 |
| 20260505123016 | 51 | 240 | 0.0 | 0.0 | 0.00 | 0.00 | 0.00 | 91 | 1012.7 |
| 20260505121515 | 51 | 240 | 0.0 | 0.0 | 0.00 | 0.00 | 0.00 | 91 | 1012.7 |
| 20260505120016 | 51 | 240 | 0.0 | 2.6 | 0.00 | 0.00 | 0.00 | 90 | 1012.7 |
| 20260505114513 | 51 | 240 | 0.0 | 0.0 | 0.00 | 0.00 | 0.00 | 90 | 1012.7 |
| 20260505113011 | 51 | 240 | 0.0 | 2.6 | 0.00 | 0.00 | 0.00 | 90 | 1012.6 |
| 20260505111521 | 51 | 250 | 0.0 | 1.7 | 0.00 | 0.00 | 0.00 | 90 | 1012.6 |
| 20260505101509 | 51 | 229 | 0.0 | 0.0 | 0.00 | 0.00 | 0.00 | 89 | 1012.0 |
| 20260505100003 | 51 | 229 | 0.0 | 0.9 | 0.00 | 0.00 | 0.00 | 89 | 1012.1 |
| 20260505094502 | 51 | 229 | 0.0 | 2.6 | 0.00 | 0.00 | 0.00 | 88 | 1012.1 |
| 20260505093059 | 52 | 229 | 0.0 | 3.5 | 0.00 | 0.00 | 0.00 | 87 | 1011.9 |
| 20260505091611 | 52 | 228 | 0.0 | 1.7 | 0.00 | 0.00 | 0.00 | 87 | 1011.8 |
| 20260505084604 | 53 | 229 | 0.0 | 4.3 | 0.00 | 0.00 | 0.00 | 86 | 1011.6 |
| 20260505083104 | 53 | 223 | 0.0 | 0.9 | 0.00 | 0.00 | 0.00 | 86 | 1011.6 |
| 20260505081550 | 53 | 223 | 0.0 | 0.0 | 0.00 | 0.00 | 0.00 | 85 | 1011.4 |
| 20260505080049 | 54 | 223 | 0.0 | 0.0 | 0.00 | 0.00 | 0.00 | 84 | 1011.4 |
| 20260505074546 | 54 | 223 | 0.0 | 0.0 | 0.00 | 0.00 | 0.00 | 85 | 1011.2 |
| 20260505073043 | 54 | 223 | 0.0 | 0.9 | 0.00 | 0.00 | 0.00 | 85 | 1011.0 |
| 20260505071541 | 54 | 223 | 0.0 | 0.0 | 0.00 | 0.00 | 0.00 | 84 | 1010.8 |
| 20260505070053 | 55 | 220 | 1.7 | 6.1 | 0.00 | 0.00 | 0.00 | 83 | 1010.8 |
| 20260505064540 | 55 | 262 | 0.9 | 3.5 | 0.00 | 0.00 | 0.00 | 83 | 1010.6 |
| 20260505063038 | 56 | 234 | 0.0 | 4.3 | 0.00 | 0.00 | 0.00 | 83 | 1010.4 |
| 20260505061603 | 56 | 210 | 0.0 | 5.2 | 0.00 | 0.00 | 0.00 | 82 | 1010.2 |
| 20260505060038 | 57 | 209 | 0.0 | 4.3 | 0.00 | 0.00 | 0.00 | 82 | 1010.0 |
| 20260505054545 | 59 | 223 | 1.7 | 3.5 | 0.00 | 0.00 | 0.00 | 79 | 1010.1 |
| 20260505053036 | 60 | 234 | 1.7 | 5.2 | 0.00 | 0.00 | 0.00 | 78 | 1009.9 |
| 20260505051536 | 61 | 246 | 2.6 | 6.1 | 0.00 | 0.00 | 0.00 | 77 | 1009.8 |
| 20260505041534 | 64 | 284 | 0.0 | 0.0 | 0.00 | 0.00 | 0.00 | 71 | 1009.2 |
| 20260505040041 | 65 | 251 | 1.7 | 9.6 | 0.00 | 0.00 | 0.00 | 70 | 1008.9 |
| 20260505034540 | 65 | 239 | 5.2 | 9.6 | 0.00 | 0.00 | 0.00 | 71 | 1008.6 |
| 20260505033133 | 65 | 257 | 3.5 | 8.7 | 0.00 | 0.00 | 0.00 | 73 | 1008.3 |
| 20260505031538 | 66 | 224 | 3.5 | 7.0 | 0.00 | 0.00 | 0.00 | 73 | 1008.2 |
| 20260505030031 | 67 | 246 | 2.6 | 9.6 | 0.00 | 0.00 | 0.00 | 73 | 1008.1 |
| 20260505024530 | 67 | 219 | 5.2 | 10.4 | 0.00 | 0.00 | 0.00 | 71 | 1008.0 |
| 20260505023029 | 68 | 212 | 2.6 | 7.8 | 0.00 | 0.00 | 0.00 | 70 | 1007.9 |
| 20260505021529 | 68 | 219 | 4.3 | 9.6 | 0.00 | 0.00 | 0.00 | 69 | 1007.9 |
| 20260505020036 | 69 | 217 | 3.5 | 8.7 | 0.00 | 0.00 | 0.00 | 68 | 1007.9 |
| 20260505014528 | 69 | 233 | 3.5 | 6.1 | 0.00 | 0.00 | 0.00 | 67 | 1007.9 |
| 20260505013027 | 70 | 169 | 3.5 | 8.7 | 0.00 | 0.00 | 0.00 | 67 | 1007.9 |
| 20260505011529 | 70 | 233 | 4.3 | 9.6 | 0.00 | 0.00 | 0.00 | 66 | 1008.0 |
| 20260505010028 | 70 | 213 | 4.3 | 9.6 | 0.00 | 0.00 | 0.00 | 65 | 1008.1 |
| 20260505004526 | 70 | 250 | 6.1 | 9.6 | 0.00 | 0.00 | 0.00 | 64 | 1008.2 |
| 20260505003026 | 70 | 205 | 1.7 | 9.6 | 0.00 | 0.00 | 0.00 | 65 | 1008.2 |
| 20260505001524 | 71 | 240 | 4.3 | 13.0 | 0.00 | 0.00 | 0.00 | 64 | 1008.3 |
| 20260505000039 | 70 | 222 | 3.5 | 10.4 | 0.00 | 0.00 | 0.00 | 65 | 1008.3 |
| 20260504234525 | 71 | 216 | 3.5 | 7.0 | 0.00 | 0.00 | 0.00 | 63 | 1008.2 |
| 20260504233022 | 70 | 220 | 5.2 | 10.4 | 0.00 | 0.00 | 0.00 | 63 | 1008.5 |
| 20260504231521 | 70 | 174 | 0.9 | 7.8 | 0.00 | 0.00 | 0.00 | 63 | 1008.6 |
| 20260504230020 | 69 | 212 | 6.1 | 12.2 | 0.00 | 0.00 | 0.00 | 63 | 1008.7 |
| 20260504224520 | 70 | 216 | 3.5 | 7.0 | 0.00 | 0.00 | 0.00 | 62 | 1008.8 |
| 20260504223019 | 69 | 210 | 0.9 | 7.8 | 0.00 | 0.00 | 0.00 | 64 | 1009.0 |
| 20260504221525 | 67 | 246 | 2.6 | 10.4 | 0.00 | 0.00 | 0.00 | 65 | 1009.2 |
| 20260504220033 | 66 | 209 | 4.3 | 9.6 | 0.00 | 0.00 | 0.00 | 66 | 1009.3 |
| 20260504214519 | 67 | 259 | 3.5 | 10.4 | 0.00 | 0.00 | 0.00 | 65 | 1009.4 |
| 20260504213017 | 65 | 173 | 1.7 | 8.7 | 0.00 | 0.00 | 0.00 | 67 | 1009.5 |
| 20260504211516 | 64 | 248 | 3.5 | 9.6 | 0.00 | 0.00 | 0.00 | 70 | 1009.7 |
| 20260504210016 | 63 | 225 | 6.1 | 10.4 | 0.00 | 0.00 | 0.00 | 70 | 1009.9 |
| 20260504204521 | 63 | 209 | 3.5 | 9.6 | 0.00 | 0.00 | 0.00 | 73 | 1010.2 |
| 20260504203015 | 61 | 182 | 5.2 | 9.6 | 0.00 | 0.00 | 0.00 | 74 | 1010.3 |
| 20260504201515 | 62 | 213 | 5.2 | 8.7 | 0.00 | 0.00 | 0.00 | 73 | 1010.3 |
| 20260504200014 | 60 | 167 | 3.5 | 10.4 | 0.00 | 0.00 | 0.00 | 76 | 1010.6 |